sensor_id;sensor_type;location;lat;lon;timestamp;P1;durP1;ratioP1;P2;durP2;ratioP2
17844;SDS011;9047;53.486;10.218;2023-07-29T00:01:43;4.63;;;4.20;;
17844;SDS011;9047;53.486;10.218;2023-07-29T00:04:11;6.60;;;4.55;;
17844;SDS011;9047;53.486;10.218;2023-07-29T00:06:38;4.57;;;3.92;;
17844;SDS011;9047;53.486;10.218;2023-07-29T00:09:05;5.32;;;4.63;;
17844;SDS011;9047;53.486;10.218;2023-07-29T00:11:32;6.68;;;4.97;;
17844;SDS011;9047;53.486;10.218;2023-07-29T00:14:00;5.90;;;4.88;;
17844;SDS011;9047;53.486;10.218;2023-07-29T00:16:30;5.75;;;5.05;;
17844;SDS011;9047;53.486;10.218;2023-07-29T00:18:57;5.72;;;4.90;;
17844;SDS011;9047;53.486;10.218;2023-07-29T00:21:23;6.43;;;5.28;;
17844;SDS011;9047;53.486;10.218;2023-07-29T00:23:50;6.25;;;5.43;;
17844;SDS011;9047;53.486;10.218;2023-07-29T00:26:17;7.25;;;6.10;;
17844;SDS011;9047;53.486;10.218;2023-07-29T00:28:46;7.70;;;5.93;;
17844;SDS011;9047;53.486;10.218;2023-07-29T00:31:15;6.68;;;5.82;;
17844;SDS011;9047;53.486;10.218;2023-07-29T00:33:42;7.55;;;6.43;;
17844;SDS011;9047;53.486;10.218;2023-07-29T00:36:10;9.63;;;6.32;;
17844;SDS011;9047;53.486;10.218;2023-07-29T00:38:37;7.30;;;6.35;;
17844;SDS011;9047;53.486;10.218;2023-07-29T00:41:06;6.72;;;6.00;;
17844;SDS011;9047;53.486;10.218;2023-07-29T00:43:35;8.20;;;6.50;;
17844;SDS011;9047;53.486;10.218;2023-07-29T00:46:02;9.18;;;7.28;;
17844;SDS011;9047;53.486;10.218;2023-07-29T00:48:31;9.77;;;7.72;;
17844;SDS011;9047;53.486;10.218;2023-07-29T00:50:59;9.30;;;7.55;;
17844;SDS011;9047;53.486;10.218;2023-07-29T00:53:26;10.65;;;8.00;;
17844;SDS011;9047;53.486;10.218;2023-07-29T00:55:53;10.48;;;8.05;;
17844;SDS011;9047;53.486;10.218;2023-07-29T00:58:21;9.45;;;7.97;;
17844;SDS011;9047;53.486;10.218;2023-07-29T01:00:48;8.90;;;7.47;;
17844;SDS011;9047;53.486;10.218;2023-07-29T01:03:16;9.20;;;8.20;;
17844;SDS011;9047;53.486;10.218;2023-07-29T01:05:47;10.23;;;8.40;;
17844;SDS011;9047;53.486;10.218;2023-07-29T01:08:25;10.70;;;8.52;;
17844;SDS011;9047;53.486;10.218;2023-07-29T01:10:58;11.45;;;8.70;;
17844;SDS011;9047;53.486;10.218;2023-07-29T01:13:40;10.27;;;8.05;;
17844;SDS011;9047;53.486;10.218;2023-07-29T01:16:13;10.80;;;8.93;;
17844;SDS011;9047;53.486;10.218;2023-07-29T01:18:43;11.90;;;8.90;;
17844;SDS011;9047;53.486;10.218;2023-07-29T01:21:15;10.68;;;8.88;;
17844;SDS011;9047;53.486;10.218;2023-07-29T01:23:46;10.75;;;8.63;;
17844;SDS011;9047;53.486;10.218;2023-07-29T01:26:13;11.57;;;9.15;;
17844;SDS011;9047;53.486;10.218;2023-07-29T01:28:39;12.13;;;8.85;;
17844;SDS011;9047;53.486;10.218;2023-07-29T01:31:09;12.00;;;9.35;;
17844;SDS011;9047;53.486;10.218;2023-07-29T01:33:40;12.40;;;9.10;;
17844;SDS011;9047;53.486;10.218;2023-07-29T01:36:13;10.88;;;9.02;;
17844;SDS011;9047;53.486;10.218;2023-07-29T01:38:47;10.05;;;8.90;;
17844;SDS011;9047;53.486;10.218;2023-07-29T01:41:18;10.65;;;9.15;;
17844;SDS011;9047;53.486;10.218;2023-07-29T01:43:46;12.55;;;9.43;;
17844;SDS011;9047;53.486;10.218;2023-07-29T01:46:14;11.55;;;8.70;;
17844;SDS011;9047;53.486;10.218;2023-07-29T01:48:41;11.90;;;9.40;;
17844;SDS011;9047;53.486;10.218;2023-07-29T01:51:10;9.70;;;8.70;;
17844;SDS011;9047;53.486;10.218;2023-07-29T01:53:38;11.98;;;8.80;;
17844;SDS011;9047;53.486;10.218;2023-07-29T01:56:08;12.43;;;9.52;;
17844;SDS011;9047;53.486;10.218;2023-07-29T01:58:35;13.07;;;8.85;;
17844;SDS011;9047;53.486;10.218;2023-07-29T02:01:02;9.75;;;8.48;;
17844;SDS011;9047;53.486;10.218;2023-07-29T02:03:29;10.55;;;8.52;;
17844;SDS011;9047;53.486;10.218;2023-07-29T02:05:57;13.57;;;9.05;;
17844;SDS011;9047;53.486;10.218;2023-07-29T02:08:24;12.05;;;9.55;;
17844;SDS011;9047;53.486;10.218;2023-07-29T02:10:51;14.27;;;9.23;;
17844;SDS011;9047;53.486;10.218;2023-07-29T02:13:19;14.90;;;9.75;;
17844;SDS011;9047;53.486;10.218;2023-07-29T02:15:48;12.77;;;9.38;;
17844;SDS011;9047;53.486;10.218;2023-07-29T02:18:18;13.82;;;10.70;;
17844;SDS011;9047;53.486;10.218;2023-07-29T02:20:45;13.45;;;10.18;;
17844;SDS011;9047;53.486;10.218;2023-07-29T02:23:14;16.13;;;11.18;;
17844;SDS011;9047;53.486;10.218;2023-07-29T02:25:45;13.75;;;10.10;;
17844;SDS011;9047;53.486;10.218;2023-07-29T02:28:12;16.90;;;12.07;;
17844;SDS011;9047;53.486;10.218;2023-07-29T02:30:41;15.00;;;10.57;;
17844;SDS011;9047;53.486;10.218;2023-07-29T02:33:11;16.70;;;12.07;;
17844;SDS011;9047;53.486;10.218;2023-07-29T02:35:38;20.25;;;12.38;;
17844;SDS011;9047;53.486;10.218;2023-07-29T02:38:08;19.20;;;13.55;;
17844;SDS011;9047;53.486;10.218;2023-07-29T02:40:35;18.52;;;13.07;;
17844;SDS011;9047;53.486;10.218;2023-07-29T02:43:12;14.68;;;10.90;;
17844;SDS011;9047;53.486;10.218;2023-07-29T02:46:03;15.27;;;11.23;;
17844;SDS011;9047;53.486;10.218;2023-07-29T02:48:30;16.45;;;11.98;;
17844;SDS011;9047;53.486;10.218;2023-07-29T02:50:59;17.15;;;13.15;;
17844;SDS011;9047;53.486;10.218;2023-07-29T02:53:26;19.33;;;13.05;;
17844;SDS011;9047;53.486;10.218;2023-07-29T02:55:54;17.35;;;13.13;;
17844;SDS011;9047;53.486;10.218;2023-07-29T02:58:22;17.75;;;13.38;;
17844;SDS011;9047;53.486;10.218;2023-07-29T03:00:52;16.00;;;12.55;;
17844;SDS011;9047;53.486;10.218;2023-07-29T03:03:21;19.02;;;14.25;;
17844;SDS011;9047;53.486;10.218;2023-07-29T03:05:50;20.15;;;13.70;;
17844;SDS011;9047;53.486;10.218;2023-07-29T03:08:27;16.67;;;12.57;;
17844;SDS011;9047;53.486;10.218;2023-07-29T03:10:54;17.48;;;13.68;;
17844;SDS011;9047;53.486;10.218;2023-07-29T03:13:21;19.73;;;13.13;;
17844;SDS011;9047;53.486;10.218;2023-07-29T03:15:51;17.73;;;13.38;;
17844;SDS011;9047;53.486;10.218;2023-07-29T03:18:17;17.88;;;13.02;;
17844;SDS011;9047;53.486;10.218;2023-07-29T03:20:46;21.17;;;14.13;;
17844;SDS011;9047;53.486;10.218;2023-07-29T03:23:15;21.52;;;14.38;;
17844;SDS011;9047;53.486;10.218;2023-07-29T03:25:42;23.20;;;14.40;;
17844;SDS011;9047;53.486;10.218;2023-07-29T03:28:10;23.42;;;16.48;;
17844;SDS011;9047;53.486;10.218;2023-07-29T03:30:38;26.48;;;16.58;;
17844;SDS011;9047;53.486;10.218;2023-07-29T03:33:07;20.10;;;13.88;;
17844;SDS011;9047;53.486;10.218;2023-07-29T03:35:34;17.80;;;13.48;;
17844;SDS011;9047;53.486;10.218;2023-07-29T03:38:03;32.97;;;19.05;;
17844;SDS011;9047;53.486;10.218;2023-07-29T03:40:30;29.42;;;17.60;;
17844;SDS011;9047;53.486;10.218;2023-07-29T03:42:59;24.20;;;16.50;;
17844;SDS011;9047;53.486;10.218;2023-07-29T03:45:26;23.38;;;16.25;;
17844;SDS011;9047;53.486;10.218;2023-07-29T03:47:54;27.63;;;16.85;;
17844;SDS011;9047;53.486;10.218;2023-07-29T03:50:23;21.13;;;14.77;;
17844;SDS011;9047;53.486;10.218;2023-07-29T03:52:50;20.20;;;14.32;;
17844;SDS011;9047;53.486;10.218;2023-07-29T03:55:20;25.40;;;15.98;;
17844;SDS011;9047;53.486;10.218;2023-07-29T03:57:47;29.88;;;17.65;;
17844;SDS011;9047;53.486;10.218;2023-07-29T04:00:15;26.77;;;16.88;;
17844;SDS011;9047;53.486;10.218;2023-07-29T04:02:43;24.55;;;15.73;;
17844;SDS011;9047;53.486;10.218;2023-07-29T04:05:12;32.08;;;19.02;;
17844;SDS011;9047;53.486;10.218;2023-07-29T04:07:39;29.38;;;18.88;;
17844;SDS011;9047;53.486;10.218;2023-07-29T04:10:07;27.15;;;16.75;;
17844;SDS011;9047;53.486;10.218;2023-07-29T04:12:38;30.42;;;17.13;;
17844;SDS011;9047;53.486;10.218;2023-07-29T04:15:06;32.22;;;19.13;;
17844;SDS011;9047;53.486;10.218;2023-07-29T04:17:34;31.45;;;19.52;;
17844;SDS011;9047;53.486;10.218;2023-07-29T04:20:01;34.65;;;19.20;;
17844;SDS011;9047;53.486;10.218;2023-07-29T04:22:29;29.15;;;16.80;;
17844;SDS011;9047;53.486;10.218;2023-07-29T04:24:58;38.22;;;19.48;;
17844;SDS011;9047;53.486;10.218;2023-07-29T04:27:26;33.67;;;18.48;;
17844;SDS011;9047;53.486;10.218;2023-07-29T04:29:56;30.10;;;18.27;;
17844;SDS011;9047;53.486;10.218;2023-07-29T04:32:23;34.15;;;19.90;;
17844;SDS011;9047;53.486;10.218;2023-07-29T04:34:51;27.45;;;18.02;;
17844;SDS011;9047;53.486;10.218;2023-07-29T04:37:18;30.85;;;19.48;;
17844;SDS011;9047;53.486;10.218;2023-07-29T04:39:45;39.38;;;21.98;;
17844;SDS011;9047;53.486;10.218;2023-07-29T04:42:13;27.10;;;18.40;;
17844;SDS011;9047;53.486;10.218;2023-07-29T04:44:40;31.88;;;19.20;;
17844;SDS011;9047;53.486;10.218;2023-07-29T04:47:12;38.67;;;22.63;;
17844;SDS011;9047;53.486;10.218;2023-07-29T04:49:39;32.40;;;21.10;;
17844;SDS011;9047;53.486;10.218;2023-07-29T04:52:07;36.13;;;22.30;;
17844;SDS011;9047;53.486;10.218;2023-07-29T04:54:34;28.85;;;20.05;;
17844;SDS011;9047;53.486;10.218;2023-07-29T04:57:03;27.73;;;19.73;;
17844;SDS011;9047;53.486;10.218;2023-07-29T04:59:31;31.23;;;20.48;;
17844;SDS011;9047;53.486;10.218;2023-07-29T05:01:58;29.95;;;21.52;;
17844;SDS011;9047;53.486;10.218;2023-07-29T05:04:26;26.92;;;19.58;;
17844;SDS011;9047;53.486;10.218;2023-07-29T05:06:54;31.77;;;21.67;;
17844;SDS011;9047;53.486;10.218;2023-07-29T05:09:21;35.67;;;21.90;;
17844;SDS011;9047;53.486;10.218;2023-07-29T05:11:49;32.38;;;21.63;;
17844;SDS011;9047;53.486;10.218;2023-07-29T05:14:16;31.48;;;21.52;;
17844;SDS011;9047;53.486;10.218;2023-07-29T05:16:44;37.28;;;21.98;;
17844;SDS011;9047;53.486;10.218;2023-07-29T05:19:13;30.90;;;21.10;;
17844;SDS011;9047;53.486;10.218;2023-07-29T05:21:41;39.53;;;25.20;;
17844;SDS011;9047;53.486;10.218;2023-07-29T05:24:08;42.88;;;28.58;;
17844;SDS011;9047;53.486;10.218;2023-07-29T05:26:35;34.92;;;24.52;;
17844;SDS011;9047;53.486;10.218;2023-07-29T05:29:03;38.45;;;25.92;;
17844;SDS011;9047;53.486;10.218;2023-07-29T05:31:30;34.38;;;23.98;;
17844;SDS011;9047;53.486;10.218;2023-07-29T05:33:57;34.90;;;24.48;;
17844;SDS011;9047;53.486;10.218;2023-07-29T05:36:25;35.20;;;25.52;;
17844;SDS011;9047;53.486;10.218;2023-07-29T05:38:55;42.20;;;26.17;;
17844;SDS011;9047;53.486;10.218;2023-07-29T05:41:23;35.88;;;25.70;;
17844;SDS011;9047;53.486;10.218;2023-07-29T05:43:53;40.00;;;27.02;;
17844;SDS011;9047;53.486;10.218;2023-07-29T05:46:20;34.28;;;25.58;;
17844;SDS011;9047;53.486;10.218;2023-07-29T05:48:48;35.67;;;25.17;;
17844;SDS011;9047;53.486;10.218;2023-07-29T05:51:17;26.92;;;20.70;;
17844;SDS011;9047;53.486;10.218;2023-07-29T05:53:44;30.58;;;22.63;;
17844;SDS011;9047;53.486;10.218;2023-07-29T05:56:12;32.42;;;23.88;;
17844;SDS011;9047;53.486;10.218;2023-07-29T05:58:40;27.90;;;21.98;;
17844;SDS011;9047;53.486;10.218;2023-07-29T06:01:08;29.15;;;21.88;;
17844;SDS011;9047;53.486;10.218;2023-07-29T06:03:35;22.33;;;18.70;;
17844;SDS011;9047;53.486;10.218;2023-07-29T06:06:02;23.65;;;18.98;;
17844;SDS011;9047;53.486;10.218;2023-07-29T06:08:31;21.83;;;17.73;;
17844;SDS011;9047;53.486;10.218;2023-07-29T06:11:01;23.52;;;19.08;;
17844;SDS011;9047;53.486;10.218;2023-07-29T06:13:33;20.80;;;17.30;;
17844;SDS011;9047;53.486;10.218;2023-07-29T06:16:01;22.27;;;17.40;;
17844;SDS011;9047;53.486;10.218;2023-07-29T06:18:28;21.88;;;18.40;;
17844;SDS011;9047;53.486;10.218;2023-07-29T06:20:58;23.77;;;18.27;;
17844;SDS011;9047;53.486;10.218;2023-07-29T06:23:28;22.08;;;17.63;;
17844;SDS011;9047;53.486;10.218;2023-07-29T06:25:55;18.83;;;16.33;;
17844;SDS011;9047;53.486;10.218;2023-07-29T06:28:26;25.58;;;19.08;;
17844;SDS011;9047;53.486;10.218;2023-07-29T06:30:58;21.35;;;17.45;;
17844;SDS011;9047;53.486;10.218;2023-07-29T06:33:26;22.55;;;18.35;;
17844;SDS011;9047;53.486;10.218;2023-07-29T06:35:54;22.23;;;17.77;;
17844;SDS011;9047;53.486;10.218;2023-07-29T06:38:23;19.63;;;17.15;;
17844;SDS011;9047;53.486;10.218;2023-07-29T06:40:51;19.80;;;14.90;;
17844;SDS011;9047;53.486;10.218;2023-07-29T06:43:19;18.98;;;16.35;;
17844;SDS011;9047;53.486;10.218;2023-07-29T06:45:46;18.13;;;15.52;;
17844;SDS011;9047;53.486;10.218;2023-07-29T06:48:17;16.48;;;14.77;;
17844;SDS011;9047;53.486;10.218;2023-07-29T06:50:55;17.63;;;14.95;;
17844;SDS011;9047;53.486;10.218;2023-07-29T06:53:25;14.65;;;13.13;;
17844;SDS011;9047;53.486;10.218;2023-07-29T06:56:01;13.95;;;12.25;;
17844;SDS011;9047;53.486;10.218;2023-07-29T06:58:29;14.80;;;11.93;;
17844;SDS011;9047;53.486;10.218;2023-07-29T07:00:57;13.80;;;11.38;;
17844;SDS011;9047;53.486;10.218;2023-07-29T07:03:27;14.00;;;11.77;;
17844;SDS011;9047;53.486;10.218;2023-07-29T07:05:54;16.35;;;12.57;;
17844;SDS011;9047;53.486;10.218;2023-07-29T07:08:34;13.90;;;11.57;;
17844;SDS011;9047;53.486;10.218;2023-07-29T07:11:09;10.98;;;9.27;;
17844;SDS011;9047;53.486;10.218;2023-07-29T07:13:36;12.15;;;10.07;;
17844;SDS011;9047;53.486;10.218;2023-07-29T07:16:03;12.38;;;9.85;;
17844;SDS011;9047;53.486;10.218;2023-07-29T07:18:32;13.32;;;10.85;;
17844;SDS011;9047;53.486;10.218;2023-07-29T07:21:01;13.88;;;10.63;;
17844;SDS011;9047;53.486;10.218;2023-07-29T07:23:28;11.38;;;9.63;;
17844;SDS011;9047;53.486;10.218;2023-07-29T07:25:56;13.43;;;10.23;;
17844;SDS011;9047;53.486;10.218;2023-07-29T07:28:24;13.77;;;11.27;;
17844;SDS011;9047;53.486;10.218;2023-07-29T07:30:54;12.20;;;8.65;;
17844;SDS011;9047;53.486;10.218;2023-07-29T07:33:22;11.20;;;9.57;;
17844;SDS011;9047;53.486;10.218;2023-07-29T07:35:55;13.32;;;10.10;;
17844;SDS011;9047;53.486;10.218;2023-07-29T07:38:29;14.18;;;11.20;;
17844;SDS011;9047;53.486;10.218;2023-07-29T07:40:56;10.68;;;9.57;;
17844;SDS011;9047;53.486;10.218;2023-07-29T07:43:24;9.32;;;8.10;;
17844;SDS011;9047;53.486;10.218;2023-07-29T07:45:57;10.80;;;9.70;;
17844;SDS011;9047;53.486;10.218;2023-07-29T07:48:25;11.60;;;9.23;;
17844;SDS011;9047;53.486;10.218;2023-07-29T07:50:56;12.15;;;9.05;;
17844;SDS011;9047;53.486;10.218;2023-07-29T07:53:23;13.05;;;8.73;;
17844;SDS011;9047;53.486;10.218;2023-07-29T07:56:06;9.02;;;7.60;;
17844;SDS011;9047;53.486;10.218;2023-07-29T07:58:33;9.35;;;7.00;;
17844;SDS011;9047;53.486;10.218;2023-07-29T08:01:01;10.18;;;7.55;;
17844;SDS011;9047;53.486;10.218;2023-07-29T08:03:29;9.10;;;6.80;;
17844;SDS011;9047;53.486;10.218;2023-07-29T08:05:58;6.88;;;6.18;;
17844;SDS011;9047;53.486;10.218;2023-07-29T08:08:25;8.55;;;6.50;;
17844;SDS011;9047;53.486;10.218;2023-07-29T08:10:52;8.13;;;6.60;;
17844;SDS011;9047;53.486;10.218;2023-07-29T08:13:20;9.13;;;6.20;;
17844;SDS011;9047;53.486;10.218;2023-07-29T08:15:48;6.97;;;6.15;;
17844;SDS011;9047;53.486;10.218;2023-07-29T08:18:16;8.93;;;6.28;;
17844;SDS011;9047;53.486;10.218;2023-07-29T08:20:51;9.43;;;7.45;;
17844;SDS011;9047;53.486;10.218;2023-07-29T08:23:21;9.00;;;8.00;;
17844;SDS011;9047;53.486;10.218;2023-07-29T08:25:52;8.05;;;7.03;;
17844;SDS011;9047;53.486;10.218;2023-07-29T08:28:24;7.72;;;6.95;;
17844;SDS011;9047;53.486;10.218;2023-07-29T08:30:52;7.35;;;6.10;;
17844;SDS011;9047;53.486;10.218;2023-07-29T08:33:19;7.22;;;6.53;;
17844;SDS011;9047;53.486;10.218;2023-07-29T08:35:47;6.32;;;5.75;;
17844;SDS011;9047;53.486;10.218;2023-07-29T08:38:14;6.15;;;5.55;;
17844;SDS011;9047;53.486;10.218;2023-07-29T08:40:45;5.88;;;5.25;;
17844;SDS011;9047;53.486;10.218;2023-07-29T08:43:19;5.72;;;5.22;;
17844;SDS011;9047;53.486;10.218;2023-07-29T08:45:50;6.57;;;5.60;;
17844;SDS011;9047;53.486;10.218;2023-07-29T08:48:23;6.13;;;5.53;;
17844;SDS011;9047;53.486;10.218;2023-07-29T08:50:56;5.82;;;5.00;;
17844;SDS011;9047;53.486;10.218;2023-07-29T08:53:24;7.28;;;5.95;;
17844;SDS011;9047;53.486;10.218;2023-07-29T08:55:56;7.97;;;5.60;;
17844;SDS011;9047;53.486;10.218;2023-07-29T08:58:23;6.22;;;5.60;;
17844;SDS011;9047;53.486;10.218;2023-07-29T09:01:15;7.13;;;5.50;;
17844;SDS011;9047;53.486;10.218;2023-07-29T09:04:21;6.40;;;5.72;;
17844;SDS011;9047;53.486;10.218;2023-07-29T09:06:50;8.98;;;6.47;;
17844;SDS011;9047;53.486;10.218;2023-07-29T09:19:08;6.45;;;5.72;;
17844;SDS011;9047;53.486;10.218;2023-07-29T09:21:38;6.70;;;5.93;;
17844;SDS011;9047;53.486;10.218;2023-07-29T09:24:06;6.65;;;5.43;;
17844;SDS011;9047;53.486;10.218;2023-07-29T09:26:35;8.68;;;5.72;;
17844;SDS011;9047;53.486;10.218;2023-07-29T09:29:03;6.68;;;6.07;;
17844;SDS011;9047;53.486;10.218;2023-07-29T09:34:02;6.38;;;5.38;;
17844;SDS011;9047;53.486;10.218;2023-07-29T09:36:33;7.97;;;5.85;;
17844;SDS011;9047;53.486;10.218;2023-07-29T09:39:10;7.43;;;6.22;;
17844;SDS011;9047;53.486;10.218;2023-07-29T09:41:38;6.68;;;6.03;;
17844;SDS011;9047;53.486;10.218;2023-07-29T09:47:04;7.55;;;6.47;;
17844;SDS011;9047;53.486;10.218;2023-07-29T09:49:34;6.32;;;5.72;;
17844;SDS011;9047;53.486;10.218;2023-07-29T09:52:07;6.18;;;5.57;;
17844;SDS011;9047;53.486;10.218;2023-07-29T09:54:37;7.50;;;6.80;;
17844;SDS011;9047;53.486;10.218;2023-07-29T09:57:05;7.75;;;6.07;;
17844;SDS011;9047;53.486;10.218;2023-07-29T10:02:09;6.72;;;6.13;;
17844;SDS011;9047;53.486;10.218;2023-07-29T10:04:58;6.78;;;6.07;;
17844;SDS011;9047;53.486;10.218;2023-07-29T10:07:39;7.65;;;5.90;;
17844;SDS011;9047;53.486;10.218;2023-07-29T10:10:11;8.07;;;6.45;;
17844;SDS011;9047;53.486;10.218;2023-07-29T10:12:50;6.90;;;6.10;;
17844;SDS011;9047;53.486;10.218;2023-07-29T10:15:21;5.80;;;5.20;;
17844;SDS011;9047;53.486;10.218;2023-07-29T10:17:49;6.82;;;5.40;;
17844;SDS011;9047;53.486;10.218;2023-07-29T10:20:22;5.32;;;4.78;;
17844;SDS011;9047;53.486;10.218;2023-07-29T10:22:54;7.50;;;5.57;;
17844;SDS011;9047;53.486;10.218;2023-07-29T10:25:35;5.82;;;5.10;;
17844;SDS011;9047;53.486;10.218;2023-07-29T10:28:14;7.00;;;5.32;;
17844;SDS011;9047;53.486;10.218;2023-07-29T10:30:47;4.97;;;4.57;;
17844;SDS011;9047;53.486;10.218;2023-07-29T10:33:16;5.65;;;4.78;;
17844;SDS011;9047;53.486;10.218;2023-07-29T10:35:44;5.88;;;5.28;;
17844;SDS011;9047;53.486;10.218;2023-07-29T10:38:14;6.30;;;4.93;;
17844;SDS011;9047;53.486;10.218;2023-07-29T10:40:46;5.18;;;4.68;;
17844;SDS011;9047;53.486;10.218;2023-07-29T10:43:18;6.00;;;4.90;;
17844;SDS011;9047;53.486;10.218;2023-07-29T10:45:58;5.18;;;4.30;;
17844;SDS011;9047;53.486;10.218;2023-07-29T10:48:43;4.63;;;4.10;;
17844;SDS011;9047;53.486;10.218;2023-07-29T10:51:22;5.43;;;4.13;;
17844;SDS011;9047;53.486;10.218;2023-07-29T10:53:57;5.82;;;4.18;;
17844;SDS011;9047;53.486;10.218;2023-07-29T10:56:27;4.28;;;3.88;;
17844;SDS011;9047;53.486;10.218;2023-07-29T10:59:02;4.55;;;3.78;;
17844;SDS011;9047;53.486;10.218;2023-07-29T11:01:58;4.70;;;4.20;;
17844;SDS011;9047;53.486;10.218;2023-07-29T11:04:27;4.65;;;4.15;;
17844;SDS011;9047;53.486;10.218;2023-07-29T11:10:08;4.68;;;3.85;;
17844;SDS011;9047;53.486;10.218;2023-07-29T11:12:39;6.60;;;3.88;;
17844;SDS011;9047;53.486;10.218;2023-07-29T11:15:14;4.03;;;3.63;;
17844;SDS011;9047;53.486;10.218;2023-07-29T11:17:51;5.30;;;3.65;;
17844;SDS011;9047;53.486;10.218;2023-07-29T11:20:29;4.65;;;3.40;;
17844;SDS011;9047;53.486;10.218;2023-07-29T11:22:58;4.05;;;3.17;;
17844;SDS011;9047;53.486;10.218;2023-07-29T11:25:28;3.03;;;2.80;;
17844;SDS011;9047;53.486;10.218;2023-07-29T11:27:59;3.42;;;3.10;;
17844;SDS011;9047;53.486;10.218;2023-07-29T11:30:27;6.45;;;3.38;;
17844;SDS011;9047;53.486;10.218;2023-07-29T11:32:56;5.68;;;2.80;;
17844;SDS011;9047;53.486;10.218;2023-07-29T11:35:24;3.13;;;2.40;;
17844;SDS011;9047;53.486;10.218;2023-07-29T11:37:54;3.70;;;2.40;;
17844;SDS011;9047;53.486;10.218;2023-07-29T11:40:23;3.75;;;2.67;;
17844;SDS011;9047;53.486;10.218;2023-07-29T11:42:55;4.28;;;2.88;;
17844;SDS011;9047;53.486;10.218;2023-07-29T11:45:22;2.78;;;2.58;;
17844;SDS011;9047;53.486;10.218;2023-07-29T11:47:50;2.90;;;2.60;;
17844;SDS011;9047;53.486;10.218;2023-07-29T11:50:18;3.45;;;2.70;;
17844;SDS011;9047;53.486;10.218;2023-07-29T11:52:45;3.10;;;2.72;;
17844;SDS011;9047;53.486;10.218;2023-07-29T11:55:13;5.15;;;2.72;;
17844;SDS011;9047;53.486;10.218;2023-07-29T11:57:42;3.95;;;2.70;;
17844;SDS011;9047;53.486;10.218;2023-07-29T12:00:12;3.22;;;2.92;;
17844;SDS011;9047;53.486;10.218;2023-07-29T12:02:40;3.72;;;2.90;;
17844;SDS011;9047;53.486;10.218;2023-07-29T12:05:10;5.15;;;3.10;;
17844;SDS011;9047;53.486;10.218;2023-07-29T12:07:39;4.03;;;2.50;;
17844;SDS011;9047;53.486;10.218;2023-07-29T12:10:08;4.38;;;2.75;;
17844;SDS011;9047;53.486;10.218;2023-07-29T12:12:38;3.20;;;2.90;;
17844;SDS011;9047;53.486;10.218;2023-07-29T12:15:14;3.97;;;2.88;;
17844;SDS011;9047;53.486;10.218;2023-07-29T12:17:52;3.42;;;2.97;;
17844;SDS011;9047;53.486;10.218;2023-07-29T12:20:24;4.20;;;3.00;;
17844;SDS011;9047;53.486;10.218;2023-07-29T12:22:52;5.03;;;3.33;;
17844;SDS011;9047;53.486;10.218;2023-07-29T12:25:25;4.57;;;3.40;;
17844;SDS011;9047;53.486;10.218;2023-07-29T12:27:53;6.72;;;3.78;;
17844;SDS011;9047;53.486;10.218;2023-07-29T12:30:22;4.43;;;3.95;;
17844;SDS011;9047;53.486;10.218;2023-07-29T12:32:49;4.20;;;3.72;;
17844;SDS011;9047;53.486;10.218;2023-07-29T12:35:16;4.82;;;3.45;;
17844;SDS011;9047;53.486;10.218;2023-07-29T12:37:44;4.00;;;3.60;;
17844;SDS011;9047;53.486;10.218;2023-07-29T12:40:20;4.35;;;3.45;;
17844;SDS011;9047;53.486;10.218;2023-07-29T12:42:49;5.07;;;3.35;;
17844;SDS011;9047;53.486;10.218;2023-07-29T12:45:16;3.95;;;3.45;;
17844;SDS011;9047;53.486;10.218;2023-07-29T12:47:45;3.58;;;3.28;;
17844;SDS011;9047;53.486;10.218;2023-07-29T12:50:12;4.57;;;3.05;;
17844;SDS011;9047;53.486;10.218;2023-07-29T12:52:39;3.22;;;2.55;;
17844;SDS011;9047;53.486;10.218;2023-07-29T12:55:06;3.00;;;2.65;;
17844;SDS011;9047;53.486;10.218;2023-07-29T12:57:38;2.70;;;2.47;;
17844;SDS011;9047;53.486;10.218;2023-07-29T13:00:06;3.75;;;2.55;;
17844;SDS011;9047;53.486;10.218;2023-07-29T13:02:34;3.45;;;2.30;;
17844;SDS011;9047;53.486;10.218;2023-07-29T13:05:04;3.17;;;2.10;;
17844;SDS011;9047;53.486;10.218;2023-07-29T13:07:32;3.00;;;2.13;;
17844;SDS011;9047;53.486;10.218;2023-07-29T13:09:59;3.83;;;2.35;;
17844;SDS011;9047;53.486;10.218;2023-07-29T13:12:27;3.13;;;2.13;;
17844;SDS011;9047;53.486;10.218;2023-07-29T13:14:54;4.05;;;2.10;;
17844;SDS011;9047;53.486;10.218;2023-07-29T13:17:21;2.83;;;2.00;;
17844;SDS011;9047;53.486;10.218;2023-07-29T13:19:49;2.60;;;2.30;;
17844;SDS011;9047;53.486;10.218;2023-07-29T13:22:17;2.30;;;2.00;;
17844;SDS011;9047;53.486;10.218;2023-07-29T13:24:45;2.88;;;2.00;;
17844;SDS011;9047;53.486;10.218;2023-07-29T13:27:13;3.40;;;1.98;;
17844;SDS011;9047;53.486;10.218;2023-07-29T13:29:40;2.17;;;1.98;;
17844;SDS011;9047;53.486;10.218;2023-07-29T13:32:08;2.65;;;2.20;;
17844;SDS011;9047;53.486;10.218;2023-07-29T13:34:35;2.88;;;2.05;;
17844;SDS011;9047;53.486;10.218;2023-07-29T13:37:04;3.25;;;2.00;;
17844;SDS011;9047;53.486;10.218;2023-07-29T13:39:34;3.35;;;2.00;;
17844;SDS011;9047;53.486;10.218;2023-07-29T13:42:01;2.95;;;2.45;;
17844;SDS011;9047;53.486;10.218;2023-07-29T13:44:28;2.58;;;2.30;;
17844;SDS011;9047;53.486;10.218;2023-07-29T13:46:55;2.33;;;2.13;;
17844;SDS011;9047;53.486;10.218;2023-07-29T13:49:22;2.50;;;2.10;;
17844;SDS011;9047;53.486;10.218;2023-07-29T13:51:49;2.80;;;2.50;;
17844;SDS011;9047;53.486;10.218;2023-07-29T13:54:16;3.55;;;2.40;;
17844;SDS011;9047;53.486;10.218;2023-07-29T13:56:46;3.53;;;2.47;;
17844;SDS011;9047;53.486;10.218;2023-07-29T13:59:13;2.75;;;2.17;;
17844;SDS011;9047;53.486;10.218;2023-07-29T14:01:40;3.65;;;2.22;;
17844;SDS011;9047;53.486;10.218;2023-07-29T14:04:07;4.63;;;2.25;;
17844;SDS011;9047;53.486;10.218;2023-07-29T14:06:34;2.45;;;2.25;;
17844;SDS011;9047;53.486;10.218;2023-07-29T14:09:01;3.63;;;2.15;;
17844;SDS011;9047;53.486;10.218;2023-07-29T14:11:28;2.65;;;2.30;;
17844;SDS011;9047;53.486;10.218;2023-07-29T14:13:59;2.28;;;2.08;;
17844;SDS011;9047;53.486;10.218;2023-07-29T14:16:26;3.05;;;2.45;;
17844;SDS011;9047;53.486;10.218;2023-07-29T14:18:55;4.28;;;2.47;;
17844;SDS011;9047;53.486;10.218;2023-07-29T14:21:21;5.47;;;2.20;;
17844;SDS011;9047;53.486;10.218;2023-07-29T14:23:48;3.53;;;2.40;;
17844;SDS011;9047;53.486;10.218;2023-07-29T14:26:15;2.72;;;2.30;;
17844;SDS011;9047;53.486;10.218;2023-07-29T14:28:42;3.35;;;2.15;;
17844;SDS011;9047;53.486;10.218;2023-07-29T14:31:10;3.22;;;2.17;;
17844;SDS011;9047;53.486;10.218;2023-07-29T14:33:38;4.15;;;2.30;;
17844;SDS011;9047;53.486;10.218;2023-07-29T14:36:08;2.95;;;2.17;;
17844;SDS011;9047;53.486;10.218;2023-07-29T14:38:35;3.30;;;2.20;;
17844;SDS011;9047;53.486;10.218;2023-07-29T14:41:02;2.50;;;2.30;;
17844;SDS011;9047;53.486;10.218;2023-07-29T14:43:35;4.07;;;2.38;;
17844;SDS011;9047;53.486;10.218;2023-07-29T14:46:02;2.95;;;2.17;;
17844;SDS011;9047;53.486;10.218;2023-07-29T14:48:32;4.05;;;2.40;;
17844;SDS011;9047;53.486;10.218;2023-07-29T14:51:03;2.97;;;2.10;;
17844;SDS011;9047;53.486;10.218;2023-07-29T14:53:30;3.17;;;1.95;;
17844;SDS011;9047;53.486;10.218;2023-07-29T14:55:57;3.30;;;2.30;;
17844;SDS011;9047;53.486;10.218;2023-07-29T14:58:24;2.83;;;2.10;;
17844;SDS011;9047;53.486;10.218;2023-07-29T15:00:51;3.55;;;1.90;;
17844;SDS011;9047;53.486;10.218;2023-07-29T15:03:19;2.55;;;1.77;;
17844;SDS011;9047;53.486;10.218;2023-07-29T15:05:47;2.63;;;2.17;;
17844;SDS011;9047;53.486;10.218;2023-07-29T15:08:15;2.95;;;1.85;;
17844;SDS011;9047;53.486;10.218;2023-07-29T15:10:44;3.10;;;1.80;;